Time;durP1;ratioP1;P1;durP2;ratioP2;P2;SDS_P1;SDS_P2;PMS_P1;PMS_P2;Temp;Humidity;BMP_temperature;BMP_pressure;BME280_temperature;BME280_humidity;BME280_pressure;Samples;Min_cycle;Max_cycle;Signal;HPM_P1;HPM_P2
2022/05/03 00:00:00;;;;;;;8.73;6.07;;;;;;;9.48;65.05;100609.53;4997308;28;20045;-73
2022/05/03 00:02:39;;;;;;;8.55;6.30;;;;;;;9.47;64.79;100608.66;4999596;28;20038;-73
2022/05/03 00:05:11;;;;;;;8.55;5.97;;;;;;;9.50;64.78;100610.41;5000761;28;20038;-73
2022/05/03 00:08:03;;;;;;;7.50;5.13;;;;;;;9.39;65.55;100607.78;5003195;28;20406;-73
2022/05/03 00:10:44;;;;;;;8.82;5.47;;;;;;;9.29;65.66;100606.03;4996375;28;20121;-73
2022/05/03 00:13:15;;;;;;;9.00;5.25;;;;;;;9.16;65.99;100608.66;4999799;28;20030;-73
2022/05/03 00:15:40;;;;;;;10.90;5.97;;;;;;;9.11;66.65;100602.50;4996938;28;20437;-73
2022/05/03 00:18:07;;;;;;;8.40;5.40;;;;;;;9.14;66.91;100606.88;5001777;28;20038;-73
2022/05/03 00:20:33;;;;;;;9.38;6.10;;;;;;;9.14;66.93;100607.78;5001337;28;20034;-73
2022/05/03 00:22:58;;;;;;;7.90;5.40;;;;;;;9.11;66.99;100605.13;5000309;28;20030;-73
2022/05/03 00:25:25;;;;;;;8.00;5.88;;;;;;;9.06;67.12;100608.63;5001494;28;20034;-73
2022/05/03 00:27:51;;;;;;;7.85;4.95;;;;;;;9.06;66.45;100608.63;4999249;28;20501;-73
2022/05/03 00:30:17;;;;;;;9.43;6.20;;;;;;;8.97;67.14;100606.88;5002540;28;20041;-73
2022/05/03 00:32:42;;;;;;;11.18;6.82;;;;;;;8.88;68.12;100599.84;5000485;28;20392;-73
2022/05/03 00:35:09;;;;;;;8.38;5.57;;;;;;;8.87;67.28;100605.09;5001047;28;20416;-73
2022/05/03 00:37:34;;;;;;;7.93;5.10;;;;;;;8.90;67.02;100613.00;5003979;28;20049;-73
2022/05/03 00:40:00;;;;;;;8.90;6.47;;;;;;;8.84;67.36;100611.25;5003264;28;20039;-73
2022/05/03 00:42:39;;;;;;;7.72;5.88;;;;;;;8.84;67.34;100600.72;5005911;28;20253;-73
2022/05/03 00:45:08;;;;;;;8.73;6.00;;;;;;;8.83;66.85;100600.69;5005808;28;20033;-73
2022/05/03 00:47:51;;;;;;;9.98;6.15;;;;;;;8.86;67.05;100600.72;5003395;28;20022;-73
2022/05/03 00:50:47;;;;;;;9.30;5.82;;;;;;;8.81;66.97;100600.72;5009540;28;20494;-73
2022/05/03 00:53:21;;;;;;;10.10;5.90;;;;;;;8.76;67.36;100605.09;5005474;28;20405;-73
2022/05/03 00:56:12;;;;;;;9.82;6.40;;;;;;;8.77;67.20;100599.81;5002445;28;20445;-72
2022/05/03 00:59:01;;;;;;;9.13;6.22;;;;;;;8.80;68.03;100600.69;5007211;28;20038;-73
2022/05/03 01:01:41;;;;;;;8.38;6.45;;;;;;;8.77;68.79;100607.69;5001891;28;20417;-72
2022/05/03 01:04:34;;;;;;;8.77;6.63;;;;;;;8.71;69.36;100618.22;4995031;28;20038;-73
2022/05/03 01:07:26;;;;;;;8.82;6.57;;;;;;;8.66;69.17;100612.06;5000056;28;20034;-72
2022/05/03 01:10:01;;;;;;;9.25;5.78;;;;;;;8.58;68.45;100616.44;5001206;28;20117;-73
2022/05/03 01:12:51;;;;;;;7.95;5.47;;;;;;;8.56;68.22;100608.53;5001859;28;20037;-73
2022/05/03 01:15:19;;;;;;;9.25;6.00;;;;;;;8.57;67.94;100609.44;5001215;28;20656;-73
2022/05/03 01:18:10;;;;;;;7.78;5.85;;;;;;;8.53;67.98;100600.63;4997790;28;20042;-73
2022/05/03 01:20:59;;;;;;;9.63;5.75;;;;;;;8.45;68.66;100604.97;4999311;28;20066;-73
2022/05/03 01:23:47;;;;;;;7.30;5.15;;;;;;;8.33;69.05;100597.91;4999664;28;20034;-73
2022/05/03 01:26:45;;;;;;;7.40;5.60;;;;;;;8.30;68.83;100604.88;4995730;28;20069;-72
2022/05/03 01:29:27;;;;;;;8.98;6.65;;;;;;;8.22;70.08;100602.22;5001128;28;20040;-72
2022/05/03 01:31:57;;;;;;;11.50;6.90;;;;;;;8.10;72.54;100607.44;4989584;28;20044;-73
2022/05/03 01:34:24;;;;;;;11.07;7.20;;;;;;;8.10;71.36;100612.69;5001284;28;20309;-72
2022/05/03 01:37:47;;;;;;;8.93;6.95;;;;;;;8.08;71.06;100614.44;5004311;28;20038;-72
2022/05/03 01:40:52;;;;;;;9.20;6.03;;;;;;;8.07;70.45;100604.81;4925745;29;20147;-73
2022/05/03 01:43:40;;;;;;;15.60;7.43;;;;;;;7.96;70.71;100596.81;4941555;29;20178;-72
2022/05/03 01:46:10;;;;;;;10.60;7.30;;;;;;;7.90;71.12;100596.81;4993758;28;20058;-72
2022/05/03 01:52:28;;;;;;;7.45;5.93;;;;;;;7.93;71.40;100594.19;4999837;28;20038;-72
2022/05/03 01:55:20;;;;;;;11.40;6.65;;;;;;;7.88;71.79;100601.16;4998258;28;20038;-72
2022/05/03 01:58:03;;;;;;;10.25;7.00;;;;;;;7.88;72.04;100602.03;4990092;28;20173;-72
2022/05/03 02:00:31;;;;;;;11.13;6.75;;;;;;;7.84;71.43;100595.03;5001568;28;20042;-73
2022/05/03 02:03:15;;;;;;;12.80;7.60;;;;;;;7.83;73.19;100600.25;5003908;28;20040;-73
2022/05/03 02:06:12;;;;;;;8.73;6.35;;;;;;;7.76;72.57;100599.34;5004611;28;20029;-72
2022/05/03 02:09:02;;;;;;;11.60;7.07;;;;;;;7.79;72.28;100594.13;4987908;28;20049;-73
2022/05/03 02:11:46;;;;;;;10.63;6.72;;;;;;;7.82;71.95;100591.50;4999482;28;20141;-73
2022/05/03 02:17:03;;;;;;;10.52;7.38;;;;;;;7.67;73.87;100601.91;5001187;28;20035;-73
2022/05/03 02:19:54;;;;;;;10.33;7.53;;;;;;;7.68;73.77;100588.78;5002043;28;20069;-73
2022/05/03 02:22:24;;;;;;;10.52;6.72;;;;;;;7.65;73.24;100594.03;4999803;28;20759;-73
2022/05/03 02:25:24;;;;;;;10.85;7.28;;;;;;;7.66;73.24;100581.78;5001865;28;20034;-72
2022/05/03 02:28:32;;;;;;;10.38;8.27;;;;;;;7.59;73.16;100588.72;4997245;28;20053;-72
2022/05/03 02:31:02;;;;;;;13.13;7.25;;;;;;;7.50;73.50;100591.31;4983227;28;20144;-73
2022/05/03 02:33:45;;;;;;;9.30;6.22;;;;;;;7.50;73.40;100590.44;4997469;28;20489;-73
2022/05/03 02:36:14;;;;;;;9.18;7.72;;;;;;;7.45;75.19;100587.75;5001110;28;20409;-72
2022/05/03 02:38:50;;;;;;;16.38;8.68;;;;;;;7.44;74.18;100584.25;4997682;28;20038;-73
2022/05/03 02:41:19;;;;;;;9.07;6.72;;;;;;;7.36;74.05;100588.59;5001568;28;20037;-73
2022/05/03 02:43:46;;;;;;;9.50;5.95;;;;;;;7.32;74.01;100591.16;4999910;28;20034;-73
2022/05/03 02:46:51;;;;;;;11.20;6.95;;;;;;;7.27;74.37;100585.88;5003578;28;20512;-72
2022/05/03 02:49:39;;;;;;;9.23;7.07;;;;;;;7.19;74.52;100598.06;5001728;28;20042;-72
2022/05/03 02:52:27;;;;;;;10.15;7.30;;;;;;;7.14;76.66;100594.50;4992279;28;20041;-72
2022/05/03 02:55:04;;;;;;;11.52;8.38;;;;;;;7.07;77.22;100597.94;4998926;28;20038;-72
2022/05/03 02:57:46;;;;;;;10.85;7.38;;;;;;;7.07;76.81;100592.69;4996791;28;20046;-72
2022/05/03 03:03:10;;;;;;;15.27;9.57;;;;;;;7.06;74.59;100585.69;4997603;28;20041;-73
2022/05/03 03:05:41;;;;;;;12.00;7.47;;;;;;;7.05;75.38;100583.91;5004135;28;20029;-72
2022/05/03 03:08:07;;;;;;;13.02;8.93;;;;;;;7.09;75.38;100578.72;5002780;28;20125;-73
2022/05/03 03:10:41;;;;;;;19.08;14.52;;;;;;;7.19;75.22;100577.06;5000316;28;20153;-73
2022/05/03 03:13:29;;;;;;;10.65;9.27;;;;;;;7.24;75.07;100580.59;5002116;28;20126;-73
2022/05/03 03:15:55;;;;;;;14.00;8.98;;;;;;;7.21;74.79;100580.56;4998806;28;20038;-73
2022/05/03 03:18:23;;;;;;;12.73;9.63;;;;;;;7.15;75.99;100580.50;5001574;28;20084;-73
2022/05/03 03:20:56;;;;;;;12.50;8.88;;;;;;;7.09;76.25;100588.34;5002659;28;20407;-72
2022/05/03 03:23:26;;;;;;;11.45;7.53;;;;;;;7.03;76.20;100582.16;4997353;28;20113;-73
2022/05/03 03:25:51;;;;;;;8.82;7.25;;;;;;;7.02;76.56;100588.28;4997889;28;20136;-73
2022/05/03 03:28:20;;;;;;;11.90;8.13;;;;;;;7.07;76.37;100583.06;5000568;28;20057;-73
2022/05/03 03:30:49;;;;;;;9.90;8.15;;;;;;;7.11;75.95;100584.84;5003299;28;20052;-73
2022/05/03 03:33:17;;;;;;;12.10;8.02;;;;;;;7.05;75.96;100586.53;5000113;28;20089;-73
2022/05/03 03:35:44;;;;;;;10.90;8.43;;;;;;;6.98;76.31;100588.25;5000615;28;20157;-73
2022/05/03 03:38:10;;;;;;;9.52;7.63;;;;;;;6.95;76.62;100582.97;5001942;28;20667;-73
2022/05/03 03:40:35;;;;;;;14.05;8.70;;;;;;;6.99;76.62;100580.34;5000297;28;20137;-72
2022/05/03 03:43:01;;;;;;;16.38;9.63;;;;;;;7.00;76.39;100583.88;5003027;28;20121;-72
2022/05/03 03:45:27;;;;;;;17.67;13.13;;;;;;;7.05;76.95;100571.69;5000164;28;20061;-73
2022/05/03 03:47:54;;;;;;;19.88;14.48;;;;;;;7.03;77.46;100563.78;5001927;28;20029;-73
2022/05/03 03:50:22;;;;;;;17.20;11.82;;;;;;;7.02;76.52;100567.28;4997652;28;20033;-73
2022/05/03 03:52:48;;;;;;;18.40;11.35;;;;;;;7.00;76.36;100570.78;4998769;28;20042;-73
2022/05/03 03:55:14;;;;;;;11.23;8.38;;;;;;;6.95;76.07;100573.34;5002979;28;20099;-73
2022/05/03 03:57:40;;;;;;;9.85;8.43;;;;;;;6.88;75.65;100579.38;4999069;28;20022;-73
2022/05/03 04:00:09;;;;;;;10.82;7.65;;;;;;;6.86;76.06;100573.25;5004517;28;20034;-73
2022/05/03 04:02:40;;;;;;;18.23;12.55;;;;;;;6.89;76.04;100568.06;5001944;28;20046;-73
2022/05/03 04:05:07;;;;;;;24.90;17.05;;;;;;;6.99;75.84;100569.88;5002741;28;20040;-73
2022/05/03 04:07:33;;;;;;;21.52;14.95;;;;;;;7.08;75.45;100570.84;4996094;28;20555;-72
2022/05/03 04:09:58;;;;;;;16.83;11.60;;;;;;;7.14;75.10;100563.88;5001125;28;20129;-73
2022/05/03 04:12:24;;;;;;;11.63;9.25;;;;;;;7.14;74.54;100574.38;5002607;28;20095;-73
2022/05/03 04:14:51;;;;;;;10.73;8.50;;;;;;;7.03;75.39;100573.41;5006581;28;20113;-73
2022/05/03 04:17:16;;;;;;;12.73;8.85;;;;;;;7.00;75.28;100581.25;5003985;28;20026;-73
2022/05/03 04:19:42;;;;;;;13.30;9.77;;;;;;;7.02;75.44;100577.78;5007052;28;20034;-73
2022/05/03 04:22:24;;;;;;;12.48;9.38;;;;;;;7.11;76.06;100583.97;5006030;28;20057;-74
2022/05/03 04:24:49;;;;;;;14.03;9.13;;;;;;;7.19;75.71;100587.53;5006216;28;20034;-73
2022/05/03 04:27:15;;;;;;;12.85;9.35;;;;;;;7.25;75.79;100579.72;5000703;28;20041;-73
2022/05/03 04:29:40;;;;;;;12.30;8.52;;;;;;;7.31;75.88;100581.50;5005983;28;20041;-72
2022/05/03 04:32:06;;;;;;;9.90;8.35;;;;;;;7.38;75.49;100584.19;5005981;28;20079;-73
2022/05/03 04:34:31;;;;;;;12.80;9.18;;;;;;;7.52;75.45;100586.03;5007710;28;20092;-72
2022/05/03 04:36:58;;;;;;;12.00;9.20;;;;;;;7.66;74.58;100584.41;5004296;28;20507;-72
2022/05/03 04:39:23;;;;;;;9.15;7.50;;;;;;;7.77;74.31;100585.34;5002074;28;20034;-73
2022/05/03 04:41:48;;;;;;;10.02;8.65;;;;;;;7.88;73.61;100581.00;5009961;28;20042;-73
2022/05/03 04:44:14;;;;;;;12.40;9.60;;;;;;;7.99;73.60;100577.56;5003092;28;20030;-73
2022/05/03 04:46:39;;;;;;;13.77;8.82;;;;;;;8.08;73.77;100593.41;4995424;28;20048;-73
2022/05/03 04:49:04;;;;;;;11.02;9.25;;;;;;;8.15;73.33;100592.56;5000191;28;20084;-73
2022/05/03 04:51:31;;;;;;;13.35;9.55;;;;;;;8.23;73.17;100597.88;5001869;28;20038;-73
2022/05/03 04:53:56;;;;;;;10.77;8.88;;;;;;;8.24;73.16;100604.88;4996641;28;20103;-73
2022/05/03 04:56:23;;;;;;;13.35;9.25;;;;;;;8.28;73.90;100607.53;5005036;28;20524;-73
2022/05/03 04:58:50;;;;;;;12.40;8.88;;;;;;;8.41;74.32;100610.22;5000616;28;20061;-73
2022/05/03 05:01:16;;;;;;;13.35;9.48;;;;;;;8.54;73.37;100606.75;5008250;28;20040;-73
2022/05/03 05:03:42;;;;;;;19.42;11.95;;;;;;;8.68;73.03;100606.81;4997908;28;20061;-73
2022/05/03 05:06:09;;;;;;;17.30;11.48;;;;;;;8.81;72.57;100603.34;5006695;28;20512;-73
2022/05/03 05:08:35;;;;;;;16.17;10.25;;;;;;;8.94;72.48;100596.34;5000989;28;20038;-73
2022/05/03 05:11:00;;;;;;;16.33;11.13;;;;;;;9.11;72.14;100601.63;5003810;28;20042;-73
2022/05/03 05:13:26;;;;;;;15.05;9.77;;;;;;;9.26;71.90;100606.03;5001574;28;20468;-73
2022/05/03 05:15:51;;;;;;;12.07;9.75;;;;;;;9.40;71.54;100601.63;5003225;28;20034;-73
2022/05/03 05:18:16;;;;;;;12.02;8.60;;;;;;;9.51;71.53;100607.81;5001026;28;20501;-73
2022/05/03 05:20:42;;;;;;;10.68;8.60;;;;;;;9.67;71.27;100606.03;5003729;28;20034;-73
2022/05/03 05:23:07;;;;;;;11.70;8.43;;;;;;;9.82;70.51;100606.00;5001885;28;20038;-72
2022/05/03 05:25:32;;;;;;;14.63;9.25;;;;;;;9.92;69.78;100598.94;5001920;28;20048;-73
2022/05/03 05:27:58;;;;;;;11.88;8.82;;;;;;;10.06;69.27;100601.53;4999335;28;20029;-73
2022/05/03 05:30:23;;;;;;;11.43;8.65;;;;;;;10.19;69.22;100597.09;4997570;28;20503;-73
2022/05/03 05:32:48;;;;;;;12.30;8.15;;;;;;;10.36;68.73;100595.31;4999260;28;20132;-73
2022/05/03 05:35:14;;;;;;;12.90;8.25;;;;;;;10.50;67.73;100604.03;4998180;28;20438;-73
2022/05/03 05:37:40;;;;;;;16.98;8.82;;;;;;;10.62;67.78;100607.50;5001720;28;20032;-73
2022/05/03 05:40:06;;;;;;;11.82;8.00;;;;;;;10.77;67.35;100610.06;5009016;28;20053;-73
2022/05/03 05:42:31;;;;;;;8.82;7.82;;;;;;;10.95;66.78;100607.31;5008001;28;20034;-73
2022/05/03 05:44:56;;;;;;;16.75;11.27;;;;;;;11.06;67.09;100614.31;5005325;28;20069;-73
2022/05/03 05:47:22;;;;;;;10.27;8.80;;;;;;;11.21;66.21;100608.00;5003065;28;20046;-73
2022/05/03 05:49:47;;;;;;;17.38;8.82;;;;;;;11.40;66.01;100604.34;5003315;28;20042;-73
2022/05/03 05:54:57;;;;;;;12.30;7.43;;;;;;;11.77;65.23;100610.16;5000957;28;20034;-73
2022/05/03 05:57:22;;;;;;;14.00;6.93;;;;;;;11.93;64.91;100615.34;5001356;28;20412;-73
2022/05/03 05:59:47;;;;;;;9.32;7.07;;;;;;;12.09;63.81;100621.34;5002238;28;20116;-75
2022/05/03 06:02:14;;;;;;;9.43;7.40;;;;;;;12.26;63.72;100624.66;5002177;28;20030;-73
2022/05/03 06:04:39;;;;;;;11.80;7.75;;;;;;;12.36;62.47;100631.59;4997109;28;20049;-73
2022/05/03 06:07:05;;;;;;;10.27;6.68;;;;;;;12.43;62.29;100628.00;5007931;28;20034;-73
2022/05/03 06:09:30;;;;;;;10.60;6.63;;;;;;;12.59;61.80;100626.03;5005976;28;20038;-72
2022/05/03 06:11:56;;;;;;;10.57;7.25;;;;;;;12.76;61.73;100625.81;4994752;28;20033;-73
2022/05/03 06:14:21;;;;;;;7.38;6.53;;;;;;;12.82;61.14;100624.84;5005073;28;20075;-74
2022/05/03 06:16:51;;;;;;;9.57;6.40;;;;;;;13.01;60.50;100633.41;5001328;28;20184;-72
2022/05/03 06:19:16;;;;;;;8.60;6.72;;;;;;;13.10;60.93;100630.63;4998012;28;20038;-73
2022/05/03 06:21:41;;;;;;;8.75;5.72;;;;;;;13.25;59.05;100629.50;5003159;28;20428;-73
2022/05/03 06:24:07;;;;;;;7.32;5.55;;;;;;;13.39;58.94;100638.16;5002199;28;20521;-73
2022/05/03 06:26:34;;;;;;;8.02;5.53;;;;;;;13.53;58.31;100630.84;5000344;28;20519;-74
2022/05/03 06:29:02;;;;;;;8.48;5.53;;;;;;;13.63;57.81;100630.72;5000973;28;20034;-73
2022/05/03 06:31:28;;;;;;;7.97;5.15;;;;;;;13.81;57.43;100635.69;4997234;28;20042;-73
2022/05/03 06:33:55;;;;;;;9.05;5.82;;;;;;;13.97;55.74;100631.84;5000384;28;20042;-73
2022/05/03 06:36:21;;;;;;;8.70;5.57;;;;;;;14.03;55.20;100626.41;5003841;28;20037;-73
2022/05/03 06:38:47;;;;;;;12.35;5.38;;;;;;;14.13;54.54;100629.78;5006000;28;20029;-74
2022/05/03 06:41:13;;;;;;;8.18;5.13;;;;;;;14.26;54.36;100633.06;5008921;28;20095;-74
2022/05/03 06:43:39;;;;;;;7.75;4.95;;;;;;;14.35;53.68;100637.31;5001233;28;20038;-74
2022/05/03 06:46:04;;;;;;;8.52;5.10;;;;;;;14.47;53.40;100643.25;5000473;28;20085;-74
2022/05/03 06:48:29;;;;;;;8.05;5.07;;;;;;;14.64;53.49;100639.41;5002569;28;20034;-74
2022/05/03 06:50:55;;;;;;;9.57;4.68;;;;;;;14.76;53.25;100647.13;5005412;28;20069;-74
2022/05/03 06:53:20;;;;;;;6.72;4.80;;;;;;;14.93;52.32;100645.88;5002313;28;20041;-74
2022/05/03 06:55:46;;;;;;;7.32;4.93;;;;;;;15.06;51.25;100648.25;5003488;28;20050;-73
2022/05/03 06:58:13;;;;;;;8.60;4.97;;;;;;;15.13;50.74;100638.31;4998393;28;20033;-74
2022/05/03 07:00:38;;;;;;;7.88;5.13;;;;;;;15.23;50.91;100637.19;5000538;28;20687;-74
2022/05/03 07:03:03;;;;;;;8.57;5.47;;;;;;;15.33;51.02;100640.53;5002015;28;20045;-73
2022/05/03 07:05:29;;;;;;;6.38;4.85;;;;;;;15.46;50.79;100639.31;5000680;28;20042;-73
2022/05/03 07:07:54;;;;;;;8.15;6.43;;;;;;;15.63;50.69;100644.19;4997053;28;20044;-74
2022/05/03 07:10:20;;;;;;;6.63;4.93;;;;;;;15.72;49.90;100646.69;5001268;28;20069;-74
2022/05/03 07:12:45;;;;;;;9.40;4.75;;;;;;;15.82;49.36;100643.75;5005226;28;20061;-73
2022/05/03 07:15:10;;;;;;;8.57;5.40;;;;;;;15.84;49.48;100650.78;5002956;28;20077;-73
2022/05/03 07:23:03;;;;;;;7.57;4.70;;;;;;;16.22;48.90;100654.25;4999637;28;20516;-74
2022/05/03 07:25:30;;;;;;;7.88;5.35;;;;;;;16.33;47.39;100651.28;5001535;28;20034;-74
2022/05/03 07:27:55;;;;;;;15.45;12.52;;;;;;;16.45;47.36;100656.25;5000096;28;20030;-74
2022/05/03 07:30:21;;;;;;;9.38;5.70;;;;;;;16.52;47.20;100657.81;5002461;28;20052;-74
2022/05/03 07:32:47;;;;;;;7.18;4.35;;;;;;;16.51;45.89;100657.88;5001148;28;20121;-74
2022/05/03 07:35:12;;;;;;;7.88;5.20;;;;;;;16.49;46.42;100657.91;5001197;28;20404;-74
2022/05/03 07:37:39;;;;;;;7.43;5.18;;;;;;;16.64;46.07;100657.47;5002250;28;20124;-74
2022/05/03 07:40:06;;;;;;;8.40;4.88;;;;;;;16.68;44.27;100658.25;4999701;28;20130;-74
2022/05/03 07:42:32;;;;;;;5.90;4.68;;;;;;;16.69;45.00;100661.78;5002474;28;20085;-74
2022/05/03 07:44:58;;;;;;;7.63;4.40;;;;;;;16.74;44.93;100659.84;5000922;28;20533;-74
2022/05/03 07:47:23;;;;;;;9.43;5.38;;;;;;;16.81;44.75;100664.13;5006000;28;20084;-74
2022/05/03 07:49:48;;;;;;;9.15;5.15;;;;;;;16.81;43.48;100664.13;5003379;28;20485;-74
2022/05/03 07:52:14;;;;;;;6.88;4.22;;;;;;;16.76;43.36;100658.88;5006337;28;20444;-74
2022/05/03 07:54:43;;;;;;;8.40;3.50;;;;;;;16.90;43.67;100665.63;5003862;28;20492;-74
2022/05/03 07:57:09;;;;;;;7.55;4.00;;;;;;;16.97;43.81;100653.88;5003608;28;20129;-74
2022/05/03 07:59:35;;;;;;;6.50;3.65;;;;;;;17.09;42.77;100664.16;5005007;28;20049;-74
2022/05/03 08:02:01;;;;;;;5.43;3.65;;;;;;;17.22;42.91;100665.53;5004750;28;20460;-74
2022/05/03 08:04:27;;;;;;;6.90;3.92;;;;;;;17.19;42.60;100670.09;5004061;28;20125;-74
2022/05/03 08:06:52;;;;;;;10.30;6.15;;;;;;;17.34;43.15;100671.38;5006633;28;20120;-74
2022/05/03 08:09:18;;;;;;;12.30;8.38;;;;;;;17.51;42.93;100666.38;5003247;28;20455;-74
2022/05/03 08:11:43;;;;;;;8.90;4.53;;;;;;;17.52;41.55;100668.13;5003520;28;20038;-74
2022/05/03 08:14:09;;;;;;;6.25;4.20;;;;;;;17.53;42.29;100667.22;5005393;28;20033;-74
2022/05/03 08:16:35;;;;;;;6.40;4.57;;;;;;;17.57;41.76;100667.97;5005380;28;20034;-74
2022/05/03 08:19:00;;;;;;;7.60;3.78;;;;;;;17.63;41.97;100678.44;5003949;28;20580;-74
2022/05/03 08:21:27;;;;;;;6.10;3.95;;;;;;;17.64;41.50;100674.88;5006084;28;20056;-74
2022/05/03 08:23:53;;;;;;;5.82;3.42;;;;;;;17.63;41.89;100678.44;4999245;28;20043;-74
2022/05/03 08:26:18;;;;;;;8.27;3.80;;;;;;;17.69;41.75;100680.94;5004434;28;20076;-74
2022/05/03 08:28:45;;;;;;;8.57;4.20;;;;;;;17.82;41.75;100684.09;5005130;28;20541;-74
2022/05/03 08:31:10;;;;;;;7.28;4.32;;;;;;;17.85;41.70;100676.84;5009810;28;20517;-74
2022/05/03 08:33:36;;;;;;;8.18;6.85;;;;;;;17.98;41.80;100676.44;5002426;28;20042;-74
2022/05/03 08:36:03;;;;;;;7.07;3.97;;;;;;;18.07;40.67;100671.63;5007625;28;20548;-74
2022/05/03 08:43:58;;;;;;;7.38;4.03;;;;;;;18.34;41.38;100676.94;4994101;28;20444;-74
2022/05/03 08:46:24;;;;;;;7.43;5.07;;;;;;;18.31;41.18;100672.59;5009965;28;20443;-74
2022/05/03 08:48:55;;;;;;;6.35;3.70;;;;;;;18.36;41.09;100673.25;4998217;28;20081;-74
2022/05/03 08:51:23;;;;;;;6.10;3.83;;;;;;;18.42;40.49;100673.97;4991675;28;20038;-74
2022/05/03 08:53:49;;;;;;;6.70;4.40;;;;;;;18.52;41.20;100668.25;4993697;28;20038;-74
2022/05/03 08:56:19;;;;;;;6.47;3.78;;;;;;;18.70;40.60;100677.38;5001073;28;20029;-74
2022/05/03 08:58:45;;;;;;;6.93;4.10;;;;;;;18.83;40.70;100670.66;5004165;28;20042;-74
2022/05/03 09:01:11;;;;;;;8.50;4.10;;;;;;;18.92;39.12;100671.25;5004314;28;20112;-74
2022/05/03 09:03:37;;;;;;;5.63;3.50;;;;;;;18.99;39.48;100675.44;5005304;28;20042;-74
2022/05/03 09:06:03;;;;;;;9.70;7.53;;;;;;;19.09;39.84;100666.09;5008003;28;20041;-74
2022/05/03 09:08:31;;;;;;;5.13;3.78;;;;;;;19.17;39.43;100666.69;5002795;28;20070;-74
2022/05/03 09:10:56;;;;;;;5.57;4.05;;;;;;;19.12;38.42;100665.97;5007938;28;20424;-74
2022/05/03 09:13:25;;;;;;;7.47;3.85;;;;;;;19.01;40.07;100669.09;5007920;28;20037;-74
2022/05/03 09:15:56;;;;;;;7.70;4.40;;;;;;;19.41;39.48;100669.31;5005872;28;20052;-74
2022/05/03 09:18:29;;;;;;;7.30;4.82;;;;;;;19.11;39.23;100672.28;5003412;28;20496;-74
2022/05/03 09:23:48;;;;;;;10.23;7.68;;;;;;;19.29;39.77;100653.75;4999384;28;20116;-74
2022/05/03 09:26:22;;;;;;;7.63;4.25;;;;;;;19.54;39.14;100651.81;5007798;28;20049;-74
2022/05/03 09:28:58;;;;;;;6.05;4.88;;;;;;;19.65;37.96;100662.09;4997833;28;20404;-74
2022/05/03 09:31:33;;;;;;;9.10;6.15;;;;;;;19.59;38.75;100660.50;5004294;28;20034;-74
2022/05/03 09:34:05;;;;;;;7.60;4.22;;;;;;;19.76;38.53;100664.34;5001381;28;20081;-74
2022/05/03 09:36:43;;;;;;;6.70;4.28;;;;;;;19.93;38.54;100661.81;5004450;28;20037;-74
2022/05/03 09:39:08;;;;;;;7.10;4.25;;;;;;;19.85;37.91;100658.59;5004785;28;20030;-74
2022/05/03 09:41:33;;;;;;;7.65;5.13;;;;;;;19.77;38.00;100663.41;5001975;28;20034;-74
2022/05/03 09:44:08;;;;;;;5.88;3.88;;;;;;;19.67;37.54;100653.06;5007206;28;20484;-74
2022/05/03 09:46:51;;;;;;;8.07;4.32;;;;;;;19.46;37.24;100661.97;5001376;28;20497;-74
2022/05/03 09:49:19;;;;;;;7.57;4.80;;;;;;;19.53;37.41;100655.44;5002193;28;20057;-74
2022/05/03 09:51:44;;;;;;;7.18;4.60;;;;;;;19.89;37.18;100654.84;4999663;28;20670;-74
2022/05/03 09:54:10;;;;;;;14.93;11.85;;;;;;;20.19;37.43;100646.41;5002385;28;20038;-74
2022/05/03 09:56:40;;;;;;;14.15;11.65;;;;;;;20.55;36.59;100644.78;5006471;28;20412;-74
2022/05/03 09:59:09;;;;;;;11.27;7.30;;;;;;;20.78;36.29;100640.19;5007518;28;20492;-74
2022/05/03 10:01:35;;;;;;;8.02;5.15;;;;;;;20.88;36.11;100656.69;5004822;28;20045;-74
2022/05/03 10:04:01;;;;;;;7.55;4.43;;;;;;;20.33;36.85;100655.59;5004711;28;20045;-74
2022/05/03 10:06:28;;;;;;;7.43;4.75;;;;;;;20.19;37.65;100649.09;5000973;28;20061;-74
2022/05/03 10:08:55;;;;;;;10.13;4.90;;;;;;;20.09;37.06;100646.81;5005019;28;20038;-74
2022/05/03 10:11:23;;;;;;;12.98;11.45;;;;;;;20.11;37.86;100639.56;5002967;28;20041;-74
2022/05/03 10:13:51;;;;;;;12.75;10.18;;;;;;;20.31;37.79;100645.88;5000764;28;20042;-74
2022/05/03 10:21:53;;;;;;;7.53;5.63;;;;;;;20.97;35.84;100634.81;4999356;28;20034;-74
2022/05/03 10:24:19;;;;;;;11.95;10.60;;;;;;;21.11;36.37;100626.09;4998137;28;20031;-74
2022/05/03 10:27:01;;;;;;;15.02;13.32;;;;;;;21.09;35.76;100622.59;5003477;28;20059;-74
2022/05/03 10:29:33;;;;;;;12.20;6.60;;;;;;;21.01;35.96;100620.28;4998025;28;20067;-74
2022/05/03 10:32:05;;;;;;;15.45;10.75;;;;;;;21.19;36.09;100621.22;5001730;28;20035;-74
2022/05/03 10:34:40;;;;;;;14.00;11.00;;;;;;;21.22;35.45;100626.44;5001283;28;20039;-74
2022/05/03 10:37:10;;;;;;;14.93;12.65;;;;;;;21.16;35.17;100624.94;5004342;28;20762;-74
2022/05/03 10:39:58;;;;;;;6.93;4.45;;;;;;;21.10;34.19;100627.91;5006676;28;20057;-74
2022/05/03 10:42:29;;;;;;;6.18;4.05;;;;;;;21.13;35.01;100625.06;5002565;28;20445;-74
2022/05/03 10:45:00;;;;;;;7.95;4.40;;;;;;;21.24;33.90;100625.41;5003942;28;20481;-74
2022/05/03 10:47:54;;;;;;;6.28;4.40;;;;;;;21.50;34.35;100619.75;5003246;28;20496;-74
2022/05/03 10:50:32;;;;;;;6.72;4.22;;;;;;;21.55;34.82;100625.75;5003669;28;20044;-74
2022/05/03 10:53:05;;;;;;;12.77;7.00;;;;;;;21.53;34.98;100615.06;5003564;28;20038;-74
2022/05/03 10:55:37;;;;;;;8.48;4.10;;;;;;;21.31;34.57;100617.94;5003756;28;20508;-74
2022/05/03 10:58:18;;;;;;;;;;;;;;;21.28;33.57;100614.56;4991746;28;20037;-74
2022/05/03 11:01:04;;;;;;;13.10;7.88;;;;;;;21.47;34.10;100612.72;4998132;28;20315;-75
2022/05/03 11:03:34;;;;;;;15.15;12.18;;;;;;;21.78;34.54;100601.28;4999547;28;20030;-74
2022/05/03 11:06:28;;;;;;;8.25;4.93;;;;;;;21.99;33.66;100598.44;5000236;28;20034;-74
2022/05/03 11:11:39;;;;;;;12.65;11.32;;;;;;;22.25;33.25;100589.88;4998690;28;20519;-74
2022/05/03 11:14:18;;;;;;;5.97;4.28;;;;;;;22.47;33.10;100600.31;5004704;28;20044;-74
2022/05/03 11:16:44;;;;;;;6.63;4.32;;;;;;;22.40;32.73;100590.00;5011394;28;20041;-75
2022/05/03 11:19:11;;;;;;;15.15;11.85;;;;;;;22.27;33.38;100595.19;5003785;28;20022;-74
2022/05/03 11:21:37;;;;;;;6.65;4.40;;;;;;;22.39;32.70;100590.94;5001044;28;20180;-74
2022/05/03 11:24:03;;;;;;;8.00;3.80;;;;;;;21.99;33.44;100591.22;5006715;28;20050;-74
2022/05/03 11:26:28;;;;;;;9.98;8.40;;;;;;;22.14;33.34;100594.94;5005845;28;20069;-74
2022/05/03 11:28:57;;;;;;;8.85;6.72;;;;;;;22.45;32.58;100596.88;5004985;28;20036;-74
2022/05/03 11:31:25;;;;;;;10.45;4.75;;;;;;;21.96;32.77;100598.59;4999285;28;20097;-74
2022/05/03 11:33:55;;;;;;;7.32;5.75;;;;;;;21.54;33.53;100599.88;5006056;28;20034;-74
2022/05/03 11:36:20;;;;;;;9.27;6.18;;;;;;;22.07;33.63;100588.16;4997083;28;20043;-74
2022/05/03 11:38:50;;;;;;;5.47;4.40;;;;;;;22.72;32.01;100589.09;5001816;28;20045;-74
2022/05/03 11:41:19;;;;;;;6.55;3.83;;;;;;;22.20;32.41;100581.19;4999678;28;20038;-74
2022/05/03 11:43:47;;;;;;;9.15;4.03;;;;;;;22.22;33.12;100579.31;4997503;28;20046;-74
2022/05/03 11:46:14;;;;;;;5.07;3.90;;;;;;;22.04;33.18;100586.50;5002505;28;20074;-74
2022/05/03 11:48:41;;;;;;;10.70;7.78;;;;;;;22.17;32.95;100577.78;5001112;28;20042;-74
2022/05/03 11:56:36;;;;;;;5.65;4.43;;;;;;;22.88;31.20;100574.78;4998647;28;20029;-74
2022/05/03 11:59:03;;;;;;;5.72;3.85;;;;;;;23.24;31.69;100573.63;5003398;28;20029;-74
2022/05/03 12:01:33;;;;;;;8.95;5.35;;;;;;;22.70;31.76;100579.38;5001248;28;20101;-74
2022/05/03 12:03:59;;;;;;;9.73;5.20;;;;;;;22.59;30.89;100588.03;5002679;28;20525;-74
2022/05/03 12:06:43;;;;;;;6.72;5.22;;;;;;;22.49;31.24;100584.13;5002296;28;20125;-74
2022/05/03 12:09:16;;;;;;;10.07;5.13;;;;;;;22.85;31.23;100574.97;5001992;28;20047;-74
2022/05/03 12:14:45;;;;;;;7.70;5.00;;;;;;;23.89;29.32;100574.25;4931157;29;20086;-74
2022/05/03 12:17:11;;;;;;;8.93;4.40;;;;;;;24.44;29.50;100573.59;4927593;29;20558;-74
2022/05/03 12:19:37;;;;;;;8.20;4.68;;;;;;;24.88;28.68;100567.13;4966492;28;20046;-74
2022/05/03 12:22:14;;;;;;;6.78;5.85;;;;;;;24.39;28.59;100559.50;5003047;28;20085;-75